createdAt,value
2022-10-19T00:02:05.462Z,30.73
2022-10-19T00:05:28.377Z,28.73
2022-10-19T00:08:50.324Z,29.25
2022-10-19T00:12:13.091Z,30.48
2022-10-19T00:15:40.256Z,28.00
2022-10-19T00:19:05.238Z,29.38
2022-10-19T00:22:27.346Z,30.70
2022-10-19T00:25:56.650Z,28.42
2022-10-19T00:29:19.388Z,28.57
2022-10-19T00:32:41.412Z,26.83
2022-10-19T00:36:05.330Z,29.30
2022-10-19T00:39:27.337Z,27.23
2022-10-19T00:42:55.933Z,29.17
2022-10-19T00:46:18.022Z,25.88
2022-10-19T00:49:43.879Z,27.90
2022-10-19T00:53:06.512Z,25.10
2022-10-19T00:56:28.442Z,25.85
2022-10-19T00:59:51.618Z,24.83
2022-10-19T01:03:14.422Z,23.70
2022-10-19T01:06:36.775Z,22.95
2022-10-19T01:10:00.363Z,23.95
2022-10-19T01:14:01.650Z,23.63
2022-10-19T01:17:33.014Z,21.17
2022-10-19T01:21:16.400Z,20.60
2022-10-19T01:25:02.414Z,20.98
2022-10-19T01:28:33.475Z,20.85
2022-10-19T01:32:16.897Z,20.98
2022-10-19T01:35:54.055Z,19.85
2022-10-19T01:39:19.251Z,19.73
2022-10-19T01:42:47.425Z,19.17
2022-10-19T01:46:33.544Z,19.48
2022-10-19T01:50:13.413Z,21.02
2022-10-19T01:53:43.496Z,21.05
2022-10-19T01:57:09.219Z,20.20
2022-10-19T02:00:38.045Z,20.33
2022-10-19T02:04:01.329Z,18.77
2022-10-19T02:07:25.577Z,19.05
2022-10-19T02:10:48.732Z,18.83
2022-10-19T02:14:14.718Z,18.42
2022-10-19T02:17:42.205Z,19.20
2022-10-19T02:21:05.365Z,20.33
2022-10-19T02:24:29.476Z,19.25
2022-10-19T02:27:51.784Z,21.65
2022-10-19T02:31:14.110Z,21.30
2022-10-19T02:34:37.502Z,20.20
2022-10-19T02:38:02.275Z,20.35
2022-10-19T02:41:39.604Z,22.35
2022-10-19T02:45:07.797Z,22.02
2022-10-19T02:48:32.183Z,21.92
2022-10-19T02:51:59.129Z,20.98
2022-10-19T02:55:21.136Z,22.58
2022-10-19T02:58:43.272Z,22.13
2022-10-19T03:02:05.295Z,22.55
2022-10-19T03:05:30.411Z,21.98
2022-10-19T03:08:52.396Z,20.55
2022-10-19T03:12:15.031Z,22.15
2022-10-19T03:15:37.169Z,23.00
2022-10-19T03:18:59.267Z,24.33
2022-10-19T03:22:21.314Z,23.10
2022-10-19T03:25:43.280Z,21.35
2022-10-19T03:29:05.392Z,24.33
2022-10-19T03:32:27.466Z,21.83
2022-10-19T03:36:16.066Z,21.98
2022-10-19T03:39:40.444Z,25.00
2022-10-19T03:43:02.393Z,23.10
2022-10-19T03:46:25.477Z,23.30
2022-10-19T03:49:47.647Z,21.88
2022-10-19T03:53:09.577Z,22.52
2022-10-19T03:56:32.606Z,22.27
2022-10-19T03:59:54.591Z,21.95
2022-10-19T04:03:16.574Z,21.45
2022-10-19T04:06:43.562Z,20.10
2022-10-19T04:10:06.330Z,20.52
2022-10-19T04:13:29.143Z,19.50
2022-10-19T04:16:51.627Z,21.10
2022-10-19T04:20:13.597Z,19.83
2022-10-19T04:23:36.393Z,20.45
2022-10-19T04:26:58.390Z,21.13
2022-10-19T04:30:20.324Z,21.23
2022-10-19T04:33:42.476Z,22.20
2022-10-19T04:37:04.460Z,20.45
2022-10-19T04:40:26.612Z,22.65
2022-10-19T04:43:49.575Z,22.33
2022-10-19T04:47:11.742Z,22.60
2022-10-19T04:50:33.887Z,20.08
2022-10-19T04:53:59.550Z,20.95
2022-10-19T04:57:22.031Z,21.90
2022-10-19T05:00:44.017Z,21.73
2022-10-19T05:04:06.894Z,19.48
2022-10-19T05:07:28.874Z,20.38
2022-10-19T05:10:50.865Z,20.30
2022-10-19T05:14:12.966Z,20.63
2022-10-19T05:17:35.262Z,21.65
2022-10-19T05:21:06.695Z,20.13
2022-10-19T05:24:57.346Z,19.02
2022-10-19T05:28:20.296Z,19.38
2022-10-19T05:31:42.431Z,18.00
2022-10-19T05:35:04.817Z,17.83
2022-10-19T05:38:26.829Z,17.15
2022-10-19T05:41:48.833Z,18.45
2022-10-19T05:45:11.132Z,21.75
2022-10-19T05:48:34.000Z,19.45
2022-10-19T05:51:56.070Z,19.50
2022-10-19T05:55:31.255Z,20.45
2022-10-19T05:58:55.051Z,19.63
2022-10-19T06:02:17.050Z,19.90
2022-10-19T06:05:39.026Z,20.27
2022-10-19T06:09:01.513Z,21.58
2022-10-19T06:12:25.069Z,21.00
2022-10-19T06:15:51.262Z,21.10
2022-10-19T06:19:13.254Z,21.65
2022-10-19T06:22:35.271Z,21.48
2022-10-19T06:25:57.367Z,23.15
2022-10-19T06:29:19.354Z,23.85
2022-10-19T06:32:41.323Z,22.75
2022-10-19T06:36:15.551Z,25.52
2022-10-19T06:39:37.499Z,24.27
2022-10-19T06:42:59.536Z,22.77
2022-10-19T06:46:23.821Z,23.83
2022-10-19T06:49:45.750Z,26.17
2022-10-19T06:53:14.457Z,24.65
2022-10-19T06:56:36.754Z,26.33
2022-10-19T06:59:58.813Z,27.60
2022-10-19T07:03:20.835Z,23.20
2022-10-19T07:06:42.821Z,23.23
2022-10-19T07:10:05.189Z,21.50
2022-10-19T07:13:30.979Z,49.40
2022-10-19T07:16:53.191Z,39.28
2022-10-19T07:20:15.212Z,38.50
2022-10-19T07:23:39.105Z,18.13
2022-10-19T07:27:01.504Z,15.30
2022-10-19T07:30:24.195Z,16.90
2022-10-19T07:33:47.301Z,18.02
2022-10-19T07:37:09.348Z,18.13
2022-10-19T07:40:31.362Z,17.35
2022-10-19T07:43:54.198Z,18.52
2022-10-19T07:47:16.135Z,18.48
2022-10-19T07:50:38.115Z,19.40
2022-10-19T07:54:00.230Z,17.70
2022-10-19T07:57:22.663Z,18.10
2022-10-19T08:00:44.746Z,20.02
2022-10-19T08:04:49.062Z,19.50
2022-10-19T08:07:48.989Z,18.83
2022-10-19T08:11:14.158Z,19.55
2022-10-19T08:14:36.296Z,19.85
2022-10-19T08:17:58.349Z,22.23
2022-10-19T08:21:20.388Z,24.23
2022-10-19T08:24:42.495Z,22.63
2022-10-19T08:28:04.825Z,22.80
2022-10-19T08:31:27.181Z,23.02
2022-10-19T08:34:49.162Z,21.40
2022-10-19T08:38:11.193Z,23.38
2022-10-19T08:41:54.480Z,24.75
2022-10-19T08:49:03.117Z,25.40
2022-10-19T08:52:33.429Z,24.45
2022-10-19T08:56:26.812Z,26.13
2022-10-19T09:00:19.612Z,24.52
2022-10-19T09:03:56.324Z,27.23
2022-10-19T09:07:28.187Z,24.60
2022-10-19T09:10:53.432Z,25.00
2022-10-19T09:14:31.535Z,26.23
2022-10-19T09:17:53.533Z,25.60
2022-10-19T09:21:30.962Z,25.17
2022-10-19T09:25:05.953Z,25.90
2022-10-19T09:28:46.468Z,25.10
2022-10-19T09:32:19.695Z,25.15
2022-10-19T09:35:44.389Z,27.42
2022-10-19T09:39:06.443Z,27.90
2022-10-19T09:42:33.042Z,27.67
2022-10-19T09:46:18.744Z,27.10
2022-10-19T09:49:44.705Z,27.08
2022-10-19T09:53:18.327Z,26.77
2022-10-19T09:56:52.255Z,28.23
2022-10-19T10:00:23.447Z,25.65
2022-10-19T10:03:53.799Z,27.02
2022-10-19T10:07:18.764Z,25.50
2022-10-19T10:10:45.890Z,26.65
2022-10-19T10:14:31.749Z,26.45
2022-10-19T10:17:55.523Z,24.60
2022-10-19T10:21:25.520Z,26.33
2022-10-19T10:24:55.076Z,27.00
2022-10-19T10:28:22.458Z,27.30
2022-10-19T10:31:45.245Z,25.52
2022-10-19T10:35:18.683Z,26.52
2022-10-19T10:38:51.646Z,25.42
2022-10-19T10:42:18.633Z,26.02
2022-10-19T10:45:54.289Z,26.70
2022-10-19T10:49:36.338Z,27.20
2022-10-19T10:53:05.820Z,28.27
2022-10-19T10:56:32.716Z,27.67
2022-10-19T11:00:13.625Z,29.80
2022-10-19T11:03:37.911Z,30.20
2022-10-19T11:07:05.772Z,30.00
2022-10-19T11:10:39.355Z,30.55
2022-10-19T11:14:25.728Z,31.83
2022-10-19T11:18:15.199Z,31.38
2022-10-19T11:21:44.047Z,29.90
2022-10-19T11:25:29.559Z,31.65
2022-10-19T11:29:06.477Z,31.40
2022-10-19T11:33:12.057Z,28.38
2022-10-19T11:37:12.697Z,27.05
2022-10-19T11:40:59.631Z,27.70
2022-10-19T11:44:52.847Z,26.90
2022-10-19T11:48:54.760Z,29.45
2022-10-19T11:52:41.231Z,28.20
2022-10-19T11:56:10.689Z,28.98
2022-10-19T12:00:03.652Z,26.13
2022-10-19T12:04:01.440Z,26.08
2022-10-19T12:07:32.211Z,28.73
2022-10-19T12:11:24.411Z,28.60
2022-10-19T12:14:51.756Z,23.77
2022-10-19T12:18:26.118Z,24.27
2022-10-19T12:21:50.767Z,24.33
2022-10-19T12:25:15.754Z,24.17
2022-10-19T12:28:41.949Z,23.83
2022-10-19T12:32:06.025Z,28.08
2022-10-19T12:35:48.246Z,22.98
2022-10-19T12:39:28.695Z,24.40
2022-10-19T12:43:03.298Z,25.77
2022-10-19T12:46:49.610Z,25.42
2022-10-19T12:50:14.684Z,24.50
2022-10-19T12:53:38.552Z,22.98
2022-10-19T12:57:02.448Z,24.55
2022-10-19T13:00:28.864Z,23.02
2022-10-19T13:04:06.602Z,20.40
2022-10-19T13:07:37.354Z,16.90
2022-10-19T13:11:17.843Z,14.50
2022-10-19T13:14:45.684Z,19.43
2022-10-19T13:18:16.941Z,19.17
2022-10-19T13:21:53.602Z,19.85
2022-10-19T13:25:28.683Z,20.20
2022-10-19T13:28:55.635Z,20.90
2022-10-19T13:32:37.959Z,18.75
2022-10-19T13:36:00.335Z,20.00
2022-10-19T13:39:24.467Z,21.15
2022-10-19T13:43:01.683Z,20.10
2022-10-19T13:46:33.188Z,19.17
2022-10-19T13:50:20.957Z,20.50
2022-10-19T13:53:53.302Z,19.92
2022-10-19T13:57:52.923Z,21.52
2022-10-19T14:01:29.827Z,22.30
2022-10-19T14:05:12.641Z,23.75
2022-10-19T14:08:59.865Z,20.85
2022-10-19T14:12:30.442Z,20.73
2022-10-19T14:15:58.617Z,22.17
2022-10-19T14:19:30.016Z,22.17
2022-10-19T14:22:52.332Z,22.27
2022-10-19T14:26:38.690Z,22.67
2022-10-19T14:30:26.406Z,20.67
2022-10-19T14:33:53.760Z,20.90
2022-10-19T14:37:20.996Z,23.13
2022-10-19T14:40:43.038Z,20.90
2022-10-19T14:44:49.408Z,20.55
2022-10-19T14:48:22.381Z,21.75
2022-10-19T14:51:55.951Z,22.63
2022-10-19T14:55:20.177Z,23.65
2022-10-19T14:58:53.744Z,24.98
2022-10-19T15:02:21.634Z,22.88
2022-10-19T15:05:49.042Z,23.33
2022-10-19T15:09:47.834Z,23.75
2022-10-19T15:13:28.708Z,22.67
2022-10-19T15:16:50.639Z,22.33
2022-10-19T15:20:55.073Z,23.20
2022-10-19T15:24:29.246Z,22.25
2022-10-19T15:27:53.731Z,23.42
2022-10-19T15:31:28.600Z,23.35
2022-10-19T15:34:51.064Z,22.58
2022-10-19T15:38:27.101Z,21.63
2022-10-19T15:41:49.740Z,21.17
2022-10-19T15:45:36.119Z,21.20
2022-10-19T15:49:42.658Z,21.90
2022-10-19T15:53:08.210Z,22.92
2022-10-19T15:56:32.341Z,21.38
2022-10-19T15:59:57.505Z,21.48
2022-10-19T16:03:19.695Z,21.20
2022-10-19T16:06:45.190Z,20.73
2022-10-19T16:10:14.351Z,21.10
2022-10-19T16:13:36.535Z,21.08
2022-10-19T16:17:01.141Z,23.08
2022-10-19T16:20:24.472Z,21.02
2022-10-19T16:23:46.491Z,22.00
2022-10-19T16:27:09.431Z,21.95
2022-10-19T16:30:32.589Z,20.88
2022-10-19T16:33:54.991Z,22.00
2022-10-19T16:37:16.982Z,23.15
2022-10-19T16:40:39.004Z,21.10
2022-10-19T16:44:01.046Z,20.92
2022-10-19T16:47:23.036Z,21.58
2022-10-19T16:50:45.829Z,23.17
2022-10-19T16:54:10.281Z,21.75
2022-10-19T16:57:32.293Z,23.15
2022-10-19T17:00:56.230Z,24.15
2022-10-19T17:04:18.304Z,22.85
2022-10-19T17:07:40.287Z,23.30
2022-10-19T17:11:22.988Z,23.00
2022-10-19T17:14:45.034Z,23.67
2022-10-19T17:18:07.146Z,23.65
2022-10-19T17:21:31.799Z,23.95
2022-10-19T17:24:55.491Z,25.15
2022-10-19T17:28:17.614Z,26.17
2022-10-19T17:31:40.813Z,28.90
2022-10-19T17:35:02.834Z,33.17
2022-10-19T17:38:24.806Z,36.80
2022-10-19T17:41:48.100Z,36.03
2022-10-19T17:45:11.133Z,32.55
2022-10-19T17:48:35.419Z,31.52
2022-10-19T17:51:57.797Z,29.33
2022-10-19T17:55:19.725Z,28.90
2022-10-19T17:58:42.541Z,27.45
2022-10-19T18:02:07.554Z,27.70
2022-10-19T18:05:29.613Z,28.48
2022-10-19T18:08:54.467Z,26.10
2022-10-19T18:12:16.424Z,25.85
2022-10-19T18:15:39.041Z,26.83
2022-10-19T18:19:08.391Z,25.38
2022-10-19T18:22:31.258Z,27.90
2022-10-19T18:25:54.602Z,25.90
2022-10-19T18:29:23.604Z,26.90
2022-10-19T18:32:49.648Z,25.55
2022-10-19T18:36:12.426Z,26.70
2022-10-19T18:39:35.012Z,26.23
2022-10-19T18:42:57.408Z,25.08
2022-10-19T18:46:21.206Z,25.67
2022-10-19T18:49:43.364Z,24.35
2022-10-19T18:53:05.845Z,24.65
2022-10-19T18:56:29.506Z,24.83
2022-10-19T18:59:51.796Z,25.13
2022-10-19T19:03:14.313Z,24.42
2022-10-19T19:06:37.864Z,24.83
2022-10-19T19:10:00.027Z,27.60
2022-10-19T19:13:26.984Z,26.17
2022-10-19T19:16:49.739Z,26.95
2022-10-19T19:20:13.262Z,26.90
2022-10-19T19:23:35.793Z,26.52
2022-10-19T19:26:59.529Z,24.58
2022-10-19T19:30:22.810Z,25.30
2022-10-19T19:33:49.780Z,26.88
2022-10-19T19:37:13.206Z,28.10
2022-10-19T19:40:38.399Z,27.48
2022-10-19T19:44:00.987Z,27.88
2022-10-19T19:47:23.009Z,28.65
2022-10-19T19:50:46.999Z,27.98
2022-10-19T19:54:09.071Z,28.52
2022-10-19T19:57:31.103Z,29.42
2022-10-19T20:00:53.166Z,29.77
2022-10-19T20:04:15.199Z,30.88
2022-10-19T20:07:37.476Z,30.10
2022-10-19T20:11:08.283Z,29.52
2022-10-19T20:14:30.257Z,25.95
2022-10-19T20:17:52.297Z,24.95
2022-10-19T20:21:15.604Z,27.25
2022-10-19T20:24:37.842Z,24.10
2022-10-19T20:27:59.853Z,23.35
2022-10-19T20:31:22.671Z,23.85
2022-10-19T20:34:44.879Z,23.90
2022-10-19T20:38:06.857Z,25.05
2022-10-19T20:41:29.089Z,25.02
2022-10-19T20:44:51.140Z,24.58
2022-10-19T20:48:13.116Z,22.38
2022-10-19T20:51:39.095Z,22.85
2022-10-19T20:55:01.084Z,20.77
2022-10-19T20:58:23.069Z,19.65
2022-10-19T21:01:48.503Z,17.98
2022-10-19T21:05:10.614Z,15.95
2022-10-19T21:08:34.862Z,15.50
2022-10-19T21:11:56.855Z,13.35
2022-10-19T21:15:18.818Z,12.45
2022-10-19T21:18:41.546Z,15.18
2022-10-19T21:22:06.591Z,14.95
2022-10-19T21:25:30.468Z,17.23
2022-10-19T21:28:53.379Z,17.00
2022-10-19T21:32:15.752Z,17.15
2022-10-19T21:35:37.782Z,18.60
2022-10-19T21:39:00.920Z,18.85
2022-10-19T21:42:24.209Z,19.33
2022-10-19T21:45:59.594Z,18.77
2022-10-19T21:49:36.518Z,19.17
2022-10-19T21:53:03.753Z,19.30
2022-10-19T21:56:27.183Z,18.63
2022-10-19T21:59:49.642Z,17.73
2022-10-19T22:03:11.626Z,19.08
2022-10-19T22:06:35.835Z,17.58
2022-10-19T22:09:57.804Z,18.67
2022-10-19T22:13:19.765Z,16.75
2022-10-19T22:16:42.247Z,18.85
2022-10-19T22:20:04.764Z,19.27
2022-10-19T22:23:26.757Z,18.83
2022-10-19T22:26:50.799Z,19.27
2022-10-19T22:30:12.870Z,20.02
2022-10-19T22:33:35.724Z,19.10
2022-10-19T22:36:58.022Z,16.73
2022-10-19T22:40:20.033Z,17.92
2022-10-19T22:43:42.004Z,17.25
2022-10-19T22:47:04.417Z,17.65
2022-10-19T22:50:26.381Z,17.80
2022-10-19T22:53:48.415Z,16.23
2022-10-19T22:57:11.882Z,16.95
2022-10-19T23:00:33.915Z,16.77
2022-10-19T23:03:56.197Z,16.40
2022-10-19T23:07:18.150Z,17.77
2022-10-19T23:10:40.057Z,16.45
2022-10-19T23:14:02.075Z,16.83
2022-10-19T23:17:24.161Z,17.08
2022-10-19T23:20:57.236Z,16.33
2022-10-19T23:24:19.156Z,16.25
2022-10-19T23:27:41.116Z,16.63
2022-10-19T23:31:09.145Z,17.83
2022-10-19T23:34:31.142Z,16.45
2022-10-19T23:37:53.251Z,19.40
2022-10-19T23:41:16.442Z,17.55
2022-10-19T23:44:38.443Z,17.67
2022-10-19T23:48:00.443Z,18.08
2022-10-19T23:51:22.720Z,18.13
2022-10-19T23:54:44.725Z,18.83
2022-10-19T23:58:06.775Z,17.98
